createdAt,value
2014-11-16T00:00:09.533Z,99889
2014-11-16T00:00:27.752Z,99898
2014-11-16T00:00:45.971Z,99886
2014-11-16T00:01:04.192Z,99886
2014-11-16T00:01:22.426Z,99892
2014-11-16T00:01:40.645Z,99886
2014-11-16T00:01:58.863Z,99898
2014-11-16T00:02:16.460Z,99889
2014-11-16T00:02:34.679Z,99898
2014-11-16T00:02:52.898Z,99886
2014-11-16T00:03:11.118Z,99883
2014-11-16T00:03:29.353Z,99883
2014-11-16T00:03:47.572Z,99886
2014-11-16T00:04:05.790Z,99892
2014-11-16T00:04:24.011Z,99886
2014-11-16T00:04:41.605Z,99886
2014-11-16T00:04:59.199Z,99883
2014-11-16T00:05:17.419Z,99883
2014-11-16T00:05:35.013Z,99883
2014-11-16T00:05:53.232Z,99883
2014-11-16T00:06:11.466Z,99889
2014-11-16T00:06:29.688Z,99886
2014-11-16T00:06:48.047Z,99883
2014-11-16T00:07:06.266Z,99883
2014-11-16T00:07:24.487Z,99895
2014-11-16T00:07:42.721Z,99889
2014-11-16T00:08:00.956Z,99872
2014-11-16T00:08:19.159Z,99892
2014-11-16T00:08:37.395Z,99881
2014-11-16T00:08:55.614Z,99886
2014-11-16T00:09:13.208Z,99883
2014-11-16T00:09:31.430Z,99883
2014-11-16T00:09:49.024Z,99892
2014-11-16T00:10:07.243Z,99889
2014-11-16T00:10:25.477Z,99866
2014-11-16T00:10:43.698Z,99883
2014-11-16T00:11:01.917Z,99892
2014-11-16T00:11:20.135Z,99875
2014-11-16T00:11:38.356Z,99881
2014-11-16T00:11:55.950Z,99883
2014-11-16T00:12:13.528Z,99881
2014-11-16T00:12:31.762Z,99878
2014-11-16T00:12:49.983Z,99886
2014-11-16T00:13:08.202Z,99889
2014-11-16T00:13:25.780Z,99889
2014-11-16T00:13:44.017Z,99886
2014-11-16T00:14:02.236Z,99892
2014-11-16T00:14:20.455Z,99889
2014-11-16T00:14:38.674Z,99889
2014-11-16T00:14:56.911Z,99875
2014-11-16T00:15:14.505Z,99872
2014-11-16T00:15:32.724Z,99872
2014-11-16T00:15:50.944Z,99883
2014-11-16T00:16:09.163Z,99889
2014-11-16T00:16:27.382Z,99889
2014-11-16T00:16:44.976Z,99872
2014-11-16T00:17:03.197Z,99883
2014-11-16T00:17:21.416Z,99883
2014-11-16T00:17:39.635Z,99872
2014-11-16T00:17:58.793Z,99878
2014-11-16T00:18:17.012Z,99883
2014-11-16T00:18:34.606Z,99889
2014-11-16T00:18:52.824Z,99883
2014-11-16T00:19:10.420Z,99878
2014-11-16T00:19:28.014Z,99886
2014-11-16T00:19:46.233Z,99881
2014-11-16T00:20:04.470Z,99883
2014-11-16T00:20:22.689Z,99883
2014-11-16T00:20:40.907Z,99883
2014-11-16T00:20:59.142Z,99901
2014-11-16T00:21:17.363Z,99883
2014-11-16T00:21:35.597Z,99883
2014-11-16T00:21:53.816Z,99875
2014-11-16T00:22:12.037Z,99883
2014-11-16T00:22:30.272Z,99878
2014-11-16T00:22:48.491Z,99889
2014-11-16T00:23:06.725Z,99881
2014-11-16T00:23:24.946Z,99875
2014-11-16T00:23:43.164Z,99886
2014-11-16T00:24:01.383Z,99881
2014-11-16T00:24:19.605Z,99883
2014-11-16T00:24:37.824Z,99878
2014-11-16T00:24:56.042Z,99892
2014-11-16T00:25:14.277Z,99889
2014-11-16T00:25:31.873Z,99898
2014-11-16T00:25:50.091Z,99886
2014-11-16T00:26:08.310Z,99895
2014-11-16T00:26:25.906Z,99898
2014-11-16T00:26:43.500Z,99895
2014-11-16T00:27:01.718Z,99883
2014-11-16T00:27:19.940Z,99886
2014-11-16T00:27:38.159Z,99892
2014-11-16T00:27:56.378Z,99898
2014-11-16T00:28:14.596Z,99881
2014-11-16T00:28:32.833Z,99892
2014-11-16T00:28:51.051Z,99886
2014-11-16T00:29:09.411Z,99886
2014-11-16T00:29:26.366Z,99889
2014-11-16T00:29:44.585Z,99892
2014-11-16T00:30:02.803Z,99878
2014-11-16T00:30:21.040Z,99895
2014-11-16T00:30:39.259Z,99898
2014-11-16T00:30:57.477Z,99898
2014-11-16T00:31:15.071Z,99889
2014-11-16T00:31:32.652Z,99892
2014-11-16T00:31:50.871Z,99886
2014-11-16T00:32:08.465Z,99886
2014-11-16T00:32:26.701Z,99901
2014-11-16T00:32:44.920Z,99883
2014-11-16T00:33:03.139Z,99886
2014-11-16T00:33:21.373Z,99892
2014-11-16T00:33:39.594Z,99892
2014-11-16T00:33:57.812Z,99886
2014-11-16T00:34:16.031Z,99904
2014-11-16T00:34:34.270Z,99881
2014-11-16T00:34:52.488Z,99889
2014-11-16T00:35:10.707Z,99889
2014-11-16T00:35:28.941Z,99892
2014-11-16T00:35:47.162Z,99886
2014-11-16T00:36:04.756Z,99886
2014-11-16T00:36:22.350Z,99881
2014-11-16T00:36:40.711Z,99886
2014-11-16T00:36:58.930Z,99889
2014-11-16T00:37:16.524Z,99878
2014-11-16T00:37:34.742Z,99875
2014-11-16T00:37:52.963Z,99881
2014-11-16T00:38:11.182Z,99878
2014-11-16T00:38:29.401Z,99875
2014-11-16T00:38:47.622Z,99886
2014-11-16T00:39:05.216Z,99881
2014-11-16T00:39:23.435Z,99878
2014-11-16T00:39:41.654Z,99881
2014-11-16T00:39:59.875Z,99892
2014-11-16T00:40:18.094Z,99881
2014-11-16T00:40:36.313Z,99892
2014-11-16T00:40:54.549Z,99889
2014-11-16T00:41:12.768Z,99889
2014-11-16T00:41:30.362Z,99881
2014-11-16T00:41:47.315Z,99886
2014-11-16T00:42:04.911Z,99886
2014-11-16T00:42:22.504Z,99898
2014-11-16T00:42:40.723Z,99889
2014-11-16T00:42:58.319Z,99895
2014-11-16T00:43:15.897Z,99895
2014-11-16T00:43:34.116Z,99883
2014-11-16T00:43:52.334Z,99881
2014-11-16T00:44:10.572Z,99883
2014-11-16T00:44:28.791Z,99881
2014-11-16T00:44:46.384Z,99881
2014-11-16T00:45:04.605Z,99883
2014-11-16T00:45:22.839Z,99878
2014-11-16T00:45:41.043Z,99875
2014-11-16T00:45:59.277Z,99883
2014-11-16T00:46:17.498Z,99883
2014-11-16T00:46:35.716Z,99881
2014-11-16T00:46:53.935Z,99881
2014-11-16T00:47:12.157Z,99883
2014-11-16T00:47:30.391Z,99881
2014-11-16T00:47:48.610Z,99895
2014-11-16T00:48:06.204Z,99869
2014-11-16T00:48:24.425Z,99872
2014-11-16T00:48:42.643Z,99886
2014-11-16T00:49:00.878Z,99878
2014-11-16T00:49:19.115Z,99872
2014-11-16T00:49:37.318Z,99878
2014-11-16T00:49:55.553Z,99883
2014-11-16T00:50:13.771Z,99883
2014-11-16T00:50:31.993Z,99875
2014-11-16T00:50:50.227Z,99878
2014-11-16T00:51:08.446Z,99881
2014-11-16T00:51:26.667Z,99892
2014-11-16T00:51:44.886Z,99881
2014-11-16T00:52:03.104Z,99875
2014-11-16T00:52:20.698Z,99878
2014-11-16T00:52:38.294Z,99872
2014-11-16T00:52:56.497Z,99863
2014-11-16T00:53:14.731Z,99869
2014-11-16T00:53:32.953Z,99875
2014-11-16T00:53:51.172Z,99872
2014-11-16T00:54:09.391Z,99881
2014-11-16T00:54:27.609Z,99878
2014-11-16T00:54:45.205Z,99875
2014-11-16T00:55:03.565Z,99866
2014-11-16T00:55:21.783Z,99878
2014-11-16T00:55:40.005Z,99883
2014-11-16T00:55:58.224Z,99878
2014-11-16T00:56:16.458Z,99869
2014-11-16T00:56:34.677Z,99881
2014-11-16T00:56:52.898Z,99860
2014-11-16T00:57:10.616Z,99869
2014-11-16T00:57:28.851Z,99872
2014-11-16T00:57:47.073Z,99869
2014-11-16T00:58:05.432Z,99866
2014-11-16T00:58:23.651Z,99872
2014-11-16T00:58:41.869Z,99869
2014-11-16T00:58:59.465Z,99875
2014-11-16T00:59:17.700Z,99869
2014-11-16T00:59:35.918Z,99866
2014-11-16T00:59:54.139Z,99869
2014-11-16T01:00:12.358Z,99869
2014-11-16T01:00:30.592Z,99872
2014-11-16T01:00:48.811Z,99855
2014-11-16T01:01:07.033Z,99863
2014-11-16T01:01:25.251Z,99855
2014-11-16T01:01:43.486Z,99855
2014-11-16T01:02:01.708Z,99858
2014-11-16T01:02:19.926Z,99858
2014-11-16T01:02:38.145Z,99869
2014-11-16T01:02:56.379Z,99858
2014-11-16T01:03:14.600Z,99863
2014-11-16T01:03:32.819Z,99860
2014-11-16T01:03:51.053Z,99863
2014-11-16T01:04:09.274Z,99863
2014-11-16T01:04:27.493Z,99863
2014-11-16T01:04:45.712Z,99869
2014-11-16T01:05:03.305Z,99872
2014-11-16T01:05:21.527Z,99869
2014-11-16T01:05:39.746Z,99869
2014-11-16T01:05:57.965Z,99872
2014-11-16T01:06:16.201Z,99866
2014-11-16T01:06:34.420Z,99863
2014-11-16T01:06:52.638Z,99869
2014-11-16T01:07:10.873Z,99878
2014-11-16T01:07:29.094Z,99863
2014-11-16T01:07:47.312Z,99855
2014-11-16T01:08:04.906Z,99858
2014-11-16T01:08:23.128Z,99863
2014-11-16T01:08:40.722Z,99875
2014-11-16T01:08:58.940Z,99860
2014-11-16T01:09:17.159Z,99858
2014-11-16T01:09:35.380Z,99858
2014-11-16T01:09:53.599Z,99860
2014-11-16T01:10:11.817Z,99858
2014-11-16T01:10:30.039Z,99858
2014-11-16T01:10:48.258Z,99863
2014-11-16T01:11:06.492Z,99866
2014-11-16T01:11:24.711Z,99852
2014-11-16T01:11:42.947Z,99852
2014-11-16T01:12:01.166Z,99855
2014-11-16T01:12:19.385Z,99858
2014-11-16T01:12:37.622Z,99858
2014-11-16T01:12:55.841Z,99860
2014-11-16T01:13:13.435Z,99863
2014-11-16T01:13:31.028Z,99858
2014-11-16T01:13:49.249Z,99858
2014-11-16T01:14:06.843Z,99855
2014-11-16T01:14:25.062Z,99869
2014-11-16T01:14:43.299Z,99852
2014-11-16T01:15:01.518Z,99869
2014-11-16T01:15:19.737Z,99846
2014-11-16T01:15:37.955Z,99860
2014-11-16T01:15:56.176Z,99855
2014-11-16T01:16:14.410Z,99858
2014-11-16T01:16:32.629Z,99855
2014-11-16T01:16:50.850Z,99843
2014-11-16T01:17:09.069Z,99840
2014-11-16T01:17:27.287Z,99846
2014-11-16T01:17:45.506Z,99855
2014-11-16T01:18:03.728Z,99852
2014-11-16T01:18:20.681Z,99852
2014-11-16T01:18:38.900Z,99858
2014-11-16T01:18:57.136Z,99849
2014-11-16T01:19:15.355Z,99852
2014-11-16T01:19:32.949Z,99846
2014-11-16T01:19:51.167Z,99843
2014-11-16T01:20:09.405Z,99849
2014-11-16T01:20:27.624Z,99855
2014-11-16T01:20:45.842Z,99855
2014-11-16T01:21:04.063Z,99852
2014-11-16T01:21:22.282Z,99846
2014-11-16T01:21:39.876Z,99849
2014-11-16T01:21:57.469Z,99860
2014-11-16T01:22:15.066Z,99846
2014-11-16T01:22:33.285Z,99849
2014-11-16T01:22:51.504Z,99858
2014-11-16T01:23:09.740Z,99855
2014-11-16T01:23:27.959Z,99858
2014-11-16T01:23:46.193Z,99849
2014-11-16T01:24:25.477Z,99849
2014-11-16T01:24:43.055Z,99858
2014-11-16T01:25:01.290Z,99860
2014-11-16T01:25:19.509Z,99855
2014-11-16T01:25:37.745Z,99869
2014-11-16T01:25:55.964Z,99858
2014-11-16T01:26:14.182Z,99866
2014-11-16T01:26:32.403Z,99858
2014-11-16T01:26:50.638Z,99860
2014-11-16T01:27:08.856Z,99849
2014-11-16T01:27:27.078Z,99860
2014-11-16T01:27:45.297Z,99858
2014-11-16T01:28:03.531Z,99860
2014-11-16T01:28:21.752Z,99855
2014-11-16T01:28:39.971Z,99858
2014-11-16T01:28:57.564Z,99858
2014-11-16T01:29:15.783Z,99860
2014-11-16T01:29:34.020Z,99863
2014-11-16T01:29:52.238Z,99866
2014-11-16T01:30:10.457Z,99863
2014-11-16T01:30:28.834Z,99855
2014-11-16T01:30:47.037Z,99863
2014-11-16T01:31:05.256Z,99852
2014-11-16T01:31:22.979Z,99852
2014-11-16T01:31:40.572Z,99863
2014-11-16T01:31:58.916Z,99857
2014-11-16T01:32:17.151Z,99855
2014-11-16T01:32:35.370Z,99860
2014-11-16T01:32:52.964Z,99846
2014-11-16T01:33:11.183Z,99858
2014-11-16T01:33:29.405Z,99855
2014-11-16T01:33:47.623Z,99855
2014-11-16T01:34:05.842Z,99858
2014-11-16T01:34:24.076Z,99858
2014-11-16T01:34:42.297Z,99860
2014-11-16T01:35:00.516Z,99858
2014-11-16T01:35:18.750Z,99860
2014-11-16T01:35:36.972Z,99858
2014-11-16T01:35:55.191Z,99855
2014-11-16T01:36:13.425Z,99855
2014-11-16T01:36:31.019Z,99860
2014-11-16T01:36:49.240Z,99860
2014-11-16T01:37:07.458Z,99855
2014-11-16T01:37:25.677Z,99863
2014-11-16T01:37:43.915Z,99860
2014-11-16T01:38:02.133Z,99843
2014-11-16T01:38:20.352Z,99858
2014-11-16T01:38:38.586Z,99855
2014-11-16T01:38:56.807Z,99855
2014-11-16T01:39:15.026Z,99849
2014-11-16T01:39:33.260Z,99860
2014-11-16T01:39:51.481Z,99855
2014-11-16T01:40:09.715Z,99863
2014-11-16T01:40:27.934Z,99860
2014-11-16T01:40:46.153Z,99858
2014-11-16T01:41:04.390Z,99860
2014-11-16T01:41:22.625Z,99855
2014-11-16T01:41:40.828Z,99857
2014-11-16T01:41:59.050Z,99858
2014-11-16T01:42:17.268Z,99860
2014-11-16T01:42:35.487Z,99843
2014-11-16T01:42:53.706Z,99858
2014-11-16T01:43:11.926Z,99855
2014-11-16T01:43:30.160Z,99855
2014-11-16T01:43:48.379Z,99863
2014-11-16T01:44:06.601Z,99858
2014-11-16T01:44:24.836Z,99855
2014-11-16T01:44:43.055Z,99855
2014-11-16T01:45:00.633Z,99852
2014-11-16T01:45:18.869Z,99858
2014-11-16T01:45:37.088Z,99849
2014-11-16T01:45:55.307Z,99860
2014-11-16T01:46:13.527Z,99852
2014-11-16T01:46:30.605Z,99858
2014-11-16T01:46:48.840Z,99852
2014-11-16T01:47:05.793Z,99858
2014-11-16T01:47:23.530Z,99849
2014-11-16T01:47:41.108Z,99840
2014-11-16T01:47:59.343Z,99860
2014-11-16T01:48:16.923Z,99855
2014-11-16T01:48:35.157Z,99858
2014-11-16T01:48:53.376Z,99863
2014-11-16T01:49:11.595Z,99855
2014-11-16T01:49:29.973Z,99855
2014-11-16T01:49:48.192Z,99855
2014-11-16T01:50:06.410Z,99858
2014-11-16T01:50:24.631Z,99849
2014-11-16T01:50:42.850Z,99858
2014-11-16T01:51:01.084Z,99872
2014-11-16T01:51:19.303Z,99855
2014-11-16T01:51:37.524Z,99852
2014-11-16T01:51:55.758Z,99846
2014-11-16T01:52:13.977Z,99843
2014-11-16T01:52:32.198Z,99849
2014-11-16T01:52:50.432Z,99849
2014-11-16T01:53:08.651Z,99846
2014-11-16T01:53:26.872Z,99843
2014-11-16T01:53:45.091Z,99846
2014-11-16T01:54:03.310Z,99849
2014-11-16T01:54:21.544Z,99860
2014-11-16T01:54:39.765Z,99860
2014-11-16T01:54:57.343Z,99855
2014-11-16T01:55:15.578Z,99858
2014-11-16T01:55:33.798Z,99852
2014-11-16T01:55:52.017Z,99855
2014-11-16T01:56:10.236Z,99852
2014-11-16T01:56:28.458Z,99855
2014-11-16T01:56:46.676Z,99849
2014-11-16T01:57:04.895Z,99855
2014-11-16T01:57:23.129Z,99860
2014-11-16T01:57:41.350Z,99855
2014-11-16T01:57:59.569Z,99860
2014-11-16T01:58:17.788Z,99858
2014-11-16T01:58:36.150Z,99846
2014-11-16T01:58:54.369Z,99860
2014-11-16T01:59:12.603Z,99860
2014-11-16T01:59:30.822Z,99855
2014-11-16T01:59:48.418Z,99863
2014-11-16T02:00:06.636Z,99855
2014-11-16T02:00:24.855Z,99863
2014-11-16T02:00:41.810Z,99855
2014-11-16T02:01:00.029Z,99852
2014-11-16T02:01:18.388Z,99858
2014-11-16T02:01:36.748Z,99858
2014-11-16T02:01:54.970Z,99855
2014-11-16T02:02:12.563Z,99855
2014-11-16T02:02:30.626Z,99858
2014-11-16T02:02:48.862Z,99855
2014-11-16T02:03:07.081Z,99852
2014-11-16T02:03:25.315Z,99852
2014-11-16T02:03:43.534Z,99860
2014-11-16T02:04:01.756Z,99858
2014-11-16T02:04:19.990Z,99863
2014-11-16T02:04:38.209Z,99863
2014-11-16T02:04:56.430Z,99858
2014-11-16T02:05:14.648Z,99860
2014-11-16T02:05:32.883Z,99869
2014-11-16T02:05:51.102Z,99852
2014-11-16T02:06:09.323Z,99860
2014-11-16T02:06:26.901Z,99858
2014-11-16T02:06:44.495Z,99846
2014-11-16T02:07:02.733Z,99846
2014-11-16T02:07:20.951Z,99855
2014-11-16T02:07:39.170Z,99852
2014-11-16T02:07:57.389Z,99858
2014-11-16T02:08:15.625Z,99852
2014-11-16T02:08:33.203Z,99858
2014-11-16T02:08:51.422Z,99858
2014-11-16T02:09:09.658Z,99852
2014-11-16T02:09:27.877Z,99852
2014-11-16T02:09:45.455Z,99855
2014-11-16T02:10:03.690Z,99846
2014-11-16T02:10:21.910Z,99852
2014-11-16T02:10:40.145Z,99858
2014-11-16T02:10:58.489Z,99855
2014-11-16T02:11:16.710Z,99849
2014-11-16T02:11:34.945Z,99846
2014-11-16T02:11:53.163Z,99858
2014-11-16T02:12:11.382Z,99855
2014-11-16T02:12:29.619Z,99860
2014-11-16T02:12:47.837Z,99849
2014-11-16T02:13:06.056Z,99852
2014-11-16T02:13:24.277Z,99858
2014-11-16T02:13:42.496Z,99852
2014-11-16T02:14:00.714Z,99840
2014-11-16T02:14:18.308Z,99852
2014-11-16T02:14:35.905Z,99855
2014-11-16T02:14:54.124Z,99858
2014-11-16T02:15:12.342Z,99849
2014-11-16T02:15:30.580Z,99858
2014-11-16T02:15:48.798Z,99840
2014-11-16T02:16:07.017Z,99855
2014-11-16T02:16:24.595Z,99855
2014-11-16T02:16:42.832Z,99852
2014-11-16T02:17:01.050Z,99846
2014-11-16T02:17:19.269Z,99837
2014-11-16T02:17:37.506Z,99840
2014-11-16T02:17:55.724Z,99840
2014-11-16T02:18:13.943Z,99834
2014-11-16T02:18:32.180Z,99837
2014-11-16T02:18:50.540Z,99858
2014-11-16T02:19:08.759Z,99846
2014-11-16T02:19:26.352Z,99855
2014-11-16T02:19:44.573Z,99843
2014-11-16T02:20:02.792Z,99849
2014-11-16T02:20:21.011Z,99852
2014-11-16T02:20:38.607Z,99837
2014-11-16T02:20:56.201Z,99846
2014-11-16T02:21:13.795Z,99834
2014-11-16T02:21:32.014Z,99843
2014-11-16T02:21:50.234Z,99832
2014-11-16T02:22:08.453Z,99840
2014-11-16T02:22:26.672Z,99837
2014-11-16T02:22:45.033Z,99834
2014-11-16T02:23:03.393Z,99834
2014-11-16T02:23:21.611Z,99834
2014-11-16T02:23:39.830Z,99834
2014-11-16T02:23:58.191Z,99834
2014-11-16T02:24:16.410Z,99834
2014-11-16T02:24:34.629Z,99834
2014-11-16T02:24:52.851Z,99829
2014-11-16T02:25:11.069Z,99837
2014-11-16T02:25:28.663Z,99829
2014-11-16T02:25:46.882Z,99826
2014-11-16T02:26:05.103Z,99834
2014-11-16T02:26:22.696Z,99837
2014-11-16T02:26:40.915Z,99826
2014-11-16T02:26:58.513Z,99824
2014-11-16T02:27:16.747Z,99826
2014-11-16T02:27:34.966Z,99829
2014-11-16T02:27:53.185Z,99832
2014-11-16T02:28:11.420Z,99826
2014-11-16T02:28:29.639Z,99834
2014-11-16T02:28:47.858Z,99826
2014-11-16T02:29:06.079Z,99832
2014-11-16T02:29:24.298Z,99826
2014-11-16T02:29:42.517Z,99840
2014-11-16T02:30:00.751Z,99840
2014-11-16T02:30:18.972Z,99837
2014-11-16T02:30:37.191Z,99840
2014-11-16T02:30:55.410Z,99837
2014-11-16T02:31:13.006Z,99834
2014-11-16T02:31:31.225Z,99834
2014-11-16T02:31:49.444Z,99834
2014-11-16T02:32:07.663Z,99843
2014-11-16T02:32:25.259Z,99843
2014-11-16T02:32:43.619Z,99840
2014-11-16T02:33:01.212Z,99837
2014-11-16T02:33:19.433Z,99834
2014-11-16T02:33:37.652Z,99832
2014-11-16T02:33:55.871Z,99824
2014-11-16T02:34:14.105Z,99832
2014-11-16T02:34:31.701Z,99832
2014-11-16T02:34:49.295Z,99832
2014-11-16T02:35:07.638Z,99846
2014-11-16T02:35:25.234Z,99826
2014-11-16T02:35:43.453Z,99832
2014-11-16T02:36:01.672Z,99840
2014-11-16T02:36:19.906Z,99834
2014-11-16T02:36:38.128Z,99834
2014-11-16T02:36:56.487Z,99834
2014-11-16T02:37:14.081Z,99834
2014-11-16T02:37:32.443Z,99829
2014-11-16T02:37:50.662Z,99832
2014-11-16T02:38:08.881Z,99834
2014-11-16T02:38:27.101Z,99824
2014-11-16T02:38:45.320Z,99832
2014-11-16T02:39:03.539Z,99832
2014-11-16T02:39:21.773Z,99832
2014-11-16T02:39:39.993Z,99840
2014-11-16T02:39:58.212Z,99834
2014-11-16T02:40:16.431Z,99837
2014-11-16T02:40:34.652Z,99826
2014-11-16T02:40:52.887Z,99824
2014-11-16T02:41:11.105Z,99826
2014-11-16T02:41:29.327Z,99840
2014-11-16T02:41:47.546Z,99834
2014-11-16T02:42:05.765Z,99834
2014-11-16T02:42:23.983Z,99832
2014-11-16T02:42:42.204Z,99834
2014-11-16T02:43:00.423Z,99834
2014-11-16T02:43:18.642Z,99832
2014-11-16T02:43:36.863Z,99837
2014-11-16T02:43:55.082Z,99832
2014-11-16T02:44:13.442Z,99834
2014-11-16T02:44:31.035Z,99837
2014-11-16T02:44:49.256Z,99840
2014-11-16T02:45:07.475Z,99834
2014-11-16T02:45:25.694Z,99824
2014-11-16T02:45:43.914Z,99821
2014-11-16T02:46:00.867Z,99826
2014-11-16T02:46:19.086Z,99829
2014-11-16T02:46:37.305Z,99824
2014-11-16T02:46:55.667Z,99829
2014-11-16T02:47:12.620Z,99832
2014-11-16T02:47:30.839Z,99821
2014-11-16T02:47:49.060Z,99829
2014-11-16T02:48:07.279Z,99824
2014-11-16T02:48:25.513Z,99832
2014-11-16T02:48:43.732Z,99821
2014-11-16T02:49:01.953Z,99834
2014-11-16T02:49:20.171Z,99826
2014-11-16T02:49:38.390Z,99826
2014-11-16T02:49:56.627Z,99834
2014-11-16T02:50:14.846Z,99824
2014-11-16T02:50:32.440Z,99809
2014-11-16T02:50:50.674Z,99818
2014-11-16T02:51:08.895Z,99824
2014-11-16T02:51:27.114Z,99826
2014-11-16T02:51:45.333Z,99826
2014-11-16T02:52:03.570Z,99824
2014-11-16T02:52:21.789Z,99829
2014-11-16T02:52:39.382Z,99824
2014-11-16T02:52:57.601Z,99818
2014-11-16T02:53:15.822Z,99826
2014-11-16T02:53:34.072Z,99821
2014-11-16T02:53:52.275Z,99824
2014-11-16T02:54:10.496Z,99824
2014-11-16T02:54:28.715Z,99818
2014-11-16T02:54:46.933Z,99834
2014-11-16T02:55:05.152Z,99832
2014-11-16T02:55:23.374Z,99824
2014-11-16T02:55:41.593Z,99824
2014-11-16T02:55:59.811Z,99826
2014-11-16T02:56:18.032Z,99821
2014-11-16T02:56:36.251Z,99826
2014-11-16T02:56:54.485Z,99826
2014-11-16T02:57:12.704Z,99832
2014-11-16T02:57:30.926Z,99824
2014-11-16T02:57:49.285Z,99818
2014-11-16T02:58:07.504Z,99834
2014-11-16T02:58:25.726Z,99834
2014-11-16T02:58:43.944Z,99818
2014-11-16T02:59:01.538Z,99809
2014-11-16T02:59:19.897Z,99824
2014-11-16T02:59:38.103Z,99826
2014-11-16T02:59:56.478Z,99824
2014-11-16T03:00:14.056Z,99826
2014-11-16T03:00:32.277Z,99809
2014-11-16T03:00:50.496Z,99821
2014-11-16T03:01:08.090Z,99809
2014-11-16T03:01:26.309Z,99821
2014-11-16T03:01:44.528Z,99818
2014-11-16T03:02:02.122Z,99812
2014-11-16T03:02:20.482Z,99818
2014-11-16T03:02:38.078Z,99834
2014-11-16T03:02:56.422Z,99812
2014-11-16T03:03:14.016Z,99824
2014-11-16T03:03:32.250Z,99826
2014-11-16T03:03:50.472Z,99818
2014-11-16T03:04:08.066Z,99829
2014-11-16T03:04:26.284Z,99824
2014-11-16T03:04:44.505Z,99809
2014-11-16T03:05:02.724Z,99829
2014-11-16T03:05:20.333Z,99826
2014-11-16T03:05:38.552Z,99826
2014-11-16T03:05:56.773Z,99824
2014-11-16T03:06:14.992Z,99809
2014-11-16T03:06:33.210Z,99818
2014-11-16T03:06:51.448Z,99824
2014-11-16T03:07:09.666Z,99809
2014-11-16T03:07:27.885Z,99821
2014-11-16T03:07:46.104Z,99818
2014-11-16T03:08:04.325Z,99804
2014-11-16T03:08:22.543Z,99824
2014-11-16T03:08:40.762Z,99818
2014-11-16T03:08:58.984Z,99809
2014-11-16T03:09:17.203Z,99818
2014-11-16T03:09:35.421Z,99818
2014-11-16T03:09:53.640Z,99818
2014-11-16T03:10:11.861Z,99809
2014-11-16T03:10:30.095Z,99809
2014-11-16T03:10:48.314Z,99809
2014-11-16T03:11:06.661Z,99821
2014-11-16T03:11:24.255Z,99804
2014-11-16T03:11:42.489Z,99809
2014-11-16T03:12:00.708Z,99812
2014-11-16T03:12:19.053Z,99812
2014-11-16T03:12:37.288Z,99804
2014-11-16T03:12:55.507Z,99809
2014-11-16T03:13:13.728Z,99807
2014-11-16T03:13:31.963Z,99801
2014-11-16T03:13:50.181Z,99795
2014-11-16T03:14:08.416Z,99801
2014-11-16T03:14:26.621Z,99798
2014-11-16T03:14:44.855Z,99798
2014-11-16T03:15:02.574Z,99809
2014-11-16T03:15:20.171Z,99807
2014-11-16T03:15:38.390Z,99809
2014-11-16T03:15:56.608Z,99795
2014-11-16T03:16:14.968Z,99812
2014-11-16T03:16:33.187Z,99801
2014-11-16T03:16:51.406Z,99795
2014-11-16T03:17:09.000Z,99809
2014-11-16T03:17:27.222Z,99804
2014-11-16T03:17:45.581Z,99795
2014-11-16T03:18:03.800Z,99801
2014-11-16T03:18:22.019Z,99798
2014-11-16T03:18:40.240Z,99798
2014-11-16T03:18:57.834Z,99804
2014-11-16T03:19:15.428Z,99795
2014-11-16T03:19:33.650Z,99789
2014-11-16T03:19:51.868Z,99798
2014-11-16T03:20:10.103Z,99789
2014-11-16T03:20:28.321Z,99789
2014-11-16T03:20:46.542Z,99804
2014-11-16T03:21:04.761Z,99787
2014-11-16T03:21:22.980Z,99804
2014-11-16T03:21:41.340Z,99798
2014-11-16T03:21:58.934Z,99801
2014-11-16T03:22:17.153Z,99798
2014-11-16T03:22:35.374Z,99804
2014-11-16T03:22:52.968Z,99801
2014-11-16T03:23:11.187Z,99804
2014-11-16T03:23:28.781Z,99804
2014-11-16T03:23:47.001Z,99804
2014-11-16T03:24:05.220Z,99792
2014-11-16T03:24:23.439Z,99789
2014-11-16T03:24:41.661Z,99795
2014-11-16T03:25:00.020Z,99792
2014-11-16T03:25:16.973Z,99795
2014-11-16T03:25:35.192Z,99798
2014-11-16T03:25:53.413Z,99801
2014-11-16T03:26:11.647Z,99792
2014-11-16T03:26:29.866Z,99795
2014-11-16T03:26:48.228Z,99798
2014-11-16T03:27:06.447Z,99798
2014-11-16T03:27:24.025Z,99798
2014-11-16T03:27:42.259Z,99787
2014-11-16T03:28:00.480Z,99787
2014-11-16T03:28:18.699Z,99789
2014-11-16T03:28:36.933Z,99792
2014-11-16T03:28:55.280Z,99789
2014-11-16T03:29:13.514Z,99798
2014-11-16T03:29:31.108Z,99801
2014-11-16T03:29:49.327Z,99798
2014-11-16T03:30:07.548Z,99798
2014-11-16T03:30:25.141Z,99792
2014-11-16T03:30:43.360Z,99792
2014-11-16T03:31:01.581Z,99792
2014-11-16T03:31:19.800Z,99792
2014-11-16T03:31:38.034Z,99792
2014-11-16T03:31:56.253Z,99795
2014-11-16T03:32:14.474Z,99801
2014-11-16T03:32:32.068Z,99798
2014-11-16T03:32:50.287Z,99801
2014-11-16T03:33:08.508Z,99804
2014-11-16T03:33:26.726Z,99804
2014-11-16T03:33:44.945Z,99804
2014-11-16T03:34:03.164Z,99795
2014-11-16T03:34:20.761Z,99804
2014-11-16T03:34:39.104Z,99804
2014-11-16T03:34:57.339Z,99798
2014-11-16T03:35:14.920Z,99812
2014-11-16T03:35:33.154Z,99804
2014-11-16T03:35:51.373Z,99798
2014-11-16T03:36:09.592Z,99804
2014-11-16T03:36:27.812Z,99801
2014-11-16T03:36:45.405Z,99807
2014-11-16T03:37:03.624Z,99801
2014-11-16T03:37:21.862Z,99812
2014-11-16T03:37:40.081Z,99807
2014-11-16T03:37:57.675Z,99804
2014-11-16T03:38:15.894Z,99809
2014-11-16T03:38:34.130Z,99804
2014-11-16T03:38:51.708Z,99798
2014-11-16T03:39:09.302Z,99812
2014-11-16T03:39:27.538Z,99798
2014-11-16T03:39:45.757Z,99821
2014-11-16T03:40:03.976Z,99809
2014-11-16T03:40:22.195Z,99809
2014-11-16T03:40:40.556Z,99804
2014-11-16T03:40:58.915Z,99809
2014-11-16T03:41:16.509Z,99809
2014-11-16T03:41:34.731Z,99812
2014-11-16T03:41:52.950Z,99804
2014-11-16T03:42:11.168Z,99804
2014-11-16T03:42:28.762Z,99807
2014-11-16T03:42:46.994Z,99807
2014-11-16T03:43:05.213Z,99818
2014-11-16T03:43:23.431Z,99804
2014-11-16T03:43:41.680Z,99804
2014-11-16T03:43:59.898Z,99804
2014-11-16T03:44:18.117Z,99809
2014-11-16T03:44:36.336Z,99824
2014-11-16T03:44:54.568Z,99795
2014-11-16T03:45:12.786Z,99807
2014-11-16T03:45:30.380Z,99795
2014-11-16T03:45:48.613Z,99812
2014-11-16T03:46:06.832Z,99812
2014-11-16T03:46:25.050Z,99798
2014-11-16T03:46:43.285Z,99795
2014-11-16T03:47:01.015Z,99804
2014-11-16T03:47:19.233Z,99798
2014-11-16T03:47:37.468Z,99809
2014-11-16T03:47:55.834Z,99801
2014-11-16T03:48:14.037Z,99792
2014-11-16T03:48:32.272Z,99812
2014-11-16T03:48:50.490Z,99798
2014-11-16T03:49:08.715Z,99795
2014-11-16T03:49:26.934Z,99801
2014-11-16T03:49:45.168Z,99804
2014-11-16T03:50:02.753Z,99801
2014-11-16T03:50:20.972Z,99801
2014-11-16T03:50:39.206Z,99795
2014-11-16T03:50:57.425Z,99798
2014-11-16T03:51:15.650Z,99804
2014-11-16T03:51:33.228Z,99804
2014-11-16T03:51:51.462Z,99807
2014-11-16T03:52:09.046Z,99801
2014-11-16T03:52:27.280Z,99804
2014-11-16T03:52:45.499Z,99795
2014-11-16T03:53:03.092Z,99801
2014-11-16T03:53:21.315Z,99801
2014-11-16T03:53:39.534Z,99795